Time;durP1;ratioP1;P1;durP2;ratioP2;P2;SDS_P1;SDS_P2;PMS_P1;PMS_P2;Temp;Humidity;BMP_temperature;BMP_pressure;BME280_temperature;BME280_humidity;BME280_pressure;Samples;Min_cycle;Max_cycle;Signal;HPM_P1;HPM_P2
2022/06/18 00:00:17;;;;;;;1.60;1.50;;;17.90;8.20;;;;;;5104198;27;34356;-75
2022/06/18 00:02:45;;;;;;;1.65;1.30;;;17.90;8.40;;;;;;5095200;27;34230;-75
2022/06/18 00:05:17;;;;;;;1.50;1.40;;;17.80;9.00;;;;;;5123573;27;34191;-75
2022/06/18 00:08:07;;;;;;;2.08;1.40;;;17.70;9.20;;;;;;5103649;27;34112;-75
2022/06/18 00:10:33;;;;;;;4.18;1.50;;;17.70;8.80;;;;;;5104026;27;34386;-75
2022/06/18 00:16:02;;;;;;;7.10;1.60;;;17.60;11.30;;;;;;5119495;27;34364;-75
2022/06/18 00:18:28;;;;;;;1.40;1.30;;;17.50;8.70;;;;;;5103185;28;34526;-75
2022/06/18 00:20:54;;;;;;;1.40;1.30;;;17.50;8.90;;;;;;5086087;28;35614;-75
2022/06/18 00:23:20;;;;;;;1.40;1.30;;;17.40;9.00;;;;;;5120093;27;34095;-75
2022/06/18 00:25:50;;;;;;;1.40;1.30;;;17.30;9.10;;;;;;5120113;27;34118;-75
2022/06/18 00:28:26;;;;;;;2.55;1.40;;;17.30;9.80;;;;;;5120060;27;34415;-75
2022/06/18 00:30:53;;;;;;;1.50;1.40;;;17.20;10.30;;;;;;5103410;27;36336;-75
2022/06/18 00:33:20;;;;;;;1.33;1.23;;;17.20;9.60;;;;;;5106130;27;34092;-75
2022/06/18 00:35:47;;;;;;;1.48;1.38;;;17.10;9.80;;;;;;5089604;28;34052;-75
2022/06/18 00:38:23;;;;;;;1.17;1.17;;;17.00;9.90;;;;;;5137117;27;34111;-75
2022/06/18 00:40:49;;;;;;;3.33;1.42;;;17.00;11.50;;;;;;5126780;27;35873;-75
2022/06/18 00:43:21;;;;;;;1.42;1.27;;;16.90;10.20;;;;;;5127937;27;34146;-75
2022/06/18 00:45:52;;;;;;;1.60;1.50;;;16.90;10.70;;;;;;5126533;27;34123;-75
2022/06/18 00:48:27;;;;;;;1.10;1.00;;;16.90;11.30;;;;;;5127325;27;34068;-75
2022/06/18 00:50:59;;;;;;;1.98;1.42;;;16.90;12.20;;;;;;5123117;27;35616;-75
2022/06/18 00:53:36;;;;;;;1.30;1.20;;;16.80;10.80;;;;;;5097704;27;34219;-75
2022/06/18 00:56:21;;;;;;;1.40;1.30;;;16.80;11.00;;;;;;5120432;27;34309;-74
2022/06/18 00:59:03;;;;;;;2.42;1.35;;;16.80;13.80;;;;;;5105720;28;34646;-75
2022/06/18 01:01:34;;;;;;;1.60;1.50;;;16.70;11.30;;;;;;5090277;27;35907;-75
2022/06/18 01:04:00;;;;;;;1.48;1.38;;;16.70;10.70;;;;;;5106014;28;34169;-75
2022/06/18 01:06:30;;;;;;;1.40;1.30;;;16.70;10.70;;;;;;5142720;27;34080;-75
2022/06/18 01:09:05;;;;;;;1.25;1.17;;;16.60;11.00;;;;;;5126179;27;34643;-74
2022/06/18 01:11:35;;;;;;;1.63;1.52;;;16.70;12.90;;;;;;5125972;27;35921;-75
2022/06/18 01:14:05;;;;;;;1.83;1.55;;;16.60;11.60;;;;;;5125959;27;34178;-74
2022/06/18 01:16:33;;;;;;;1.77;1.67;;;16.50;11.10;;;;;;5112121;27;34345;-75
2022/06/18 01:19:00;;;;;;;1.65;1.35;;;16.50;11.20;;;;;;5106901;27;34174;-75
2022/06/18 01:21:46;;;;;;;4.93;1.52;;;16.50;11.20;;;;;;5106327;27;35024;-74
2022/06/18 01:24:19;;;;;;;1.42;1.30;;;16.50;14.20;;;;;;5119186;27;34241;-75
2022/06/18 01:26:48;;;;;;;3.47;1.50;;;16.40;12.40;;;;;;5114399;27;34088;-75
2022/06/18 01:29:14;;;;;;;1.70;1.60;;;16.40;11.80;;;;;;5105767;28;34514;-75
2022/06/18 01:31:41;;;;;;;1.60;1.33;;;16.30;11.60;;;;;;5087690;28;36373;-75
2022/06/18 01:34:09;;;;;;;1.45;1.35;;;16.40;11.60;;;;;;5105352;28;34188;-75
2022/06/18 01:36:36;;;;;;;2.22;1.48;;;16.30;12.10;;;;;;5105043;28;34109;-75
2022/06/18 01:39:08;;;;;;;1.42;1.33;;;16.30;11.80;;;;;;5087941;28;34531;-75
2022/06/18 01:41:51;;;;;;;1.42;1.30;;;16.30;12.30;;;;;;5105365;28;34212;-74
2022/06/18 01:44:28;;;;;;;2.42;1.38;;;16.30;12.70;;;;;;5103894;27;34381;-75
2022/06/18 01:47:05;;;;;;;1.58;1.48;;;16.20;12.50;;;;;;5122542;27;34217;-75
2022/06/18 01:49:36;;;;;;;1.40;1.30;;;16.10;12.20;;;;;;5124567;27;34553;-75
2022/06/18 01:52:06;;;;;;;3.55;1.70;;;16.20;12.20;;;;;;5125221;27;35889;-75
2022/06/18 01:54:41;;;;;;;3.30;1.80;;;16.20;12.30;;;;;;5108113;27;34139;-75
2022/06/18 01:57:15;;;;;;;2.45;1.55;;;16.10;12.80;;;;;;5125592;27;34333;-75
2022/06/18 01:59:47;;;;;;;2.60;1.55;;;16.10;13.30;;;;;;5125376;27;34083;-75
2022/06/18 02:02:13;;;;;;;1.63;1.40;;;16.00;12.80;;;;;;5125460;27;35196;-75
2022/06/18 02:04:41;;;;;;;1.65;1.42;;;16.00;12.40;;;;;;5125254;27;34036;-75
2022/06/18 02:07:07;;;;;;;1.60;1.50;;;16.00;12.40;;;;;;5121601;27;34169;-75
2022/06/18 02:09:41;;;;;;;1.40;1.30;;;16.00;12.60;;;;;;5106275;27;34067;-75
2022/06/18 02:12:12;;;;;;;1.88;1.58;;;15.90;13.40;;;;;;5121879;27;36674;-75
2022/06/18 02:14:42;;;;;;;2.33;1.48;;;16.00;13.20;;;;;;5105025;28;34201;-75
2022/06/18 02:17:11;;;;;;;1.98;1.80;;;15.90;12.90;;;;;;5121599;27;34130;-75
2022/06/18 02:19:39;;;;;;;2.67;1.60;;;15.90;13.00;;;;;;5105490;27;34172;-75
2022/06/18 02:22:08;;;;;;;1.80;1.70;;;15.80;12.90;;;;;;5104544;28;35636;-75
2022/06/18 02:24:34;;;;;;;2.42;1.80;;;15.80;13.30;;;;;;5105219;27;34173;-75
2022/06/18 02:27:00;;;;;;;2.60;1.80;;;15.80;13.00;;;;;;5105525;27;34375;-75
2022/06/18 02:29:31;;;;;;;1.85;1.60;;;15.80;12.90;;;;;;5125948;27;34597;-75
2022/06/18 02:31:59;;;;;;;2.42;1.80;;;15.80;13.20;;;;;;5124338;27;36028;-75
2022/06/18 02:34:30;;;;;;;1.98;1.58;;;15.80;13.10;;;;;;5124482;27;34157;-75
2022/06/18 02:36:58;;;;;;;1.65;1.55;;;15.70;13.80;;;;;;5124476;27;34340;-75
2022/06/18 02:39:34;;;;;;;3.30;1.80;;;15.70;13.10;;;;;;5125770;27;34415;-76
2022/06/18 02:42:06;;;;;;;2.00;1.60;;;15.70;14.10;;;;;;5124418;27;36341;-75
2022/06/18 02:44:33;;;;;;;1.63;1.52;;;15.60;13.30;;;;;;5124011;27;34120;-75
2022/06/18 02:47:05;;;;;;;1.80;1.60;;;15.60;13.10;;;;;;5141933;27;34199;-76
2022/06/18 02:49:35;;;;;;;1.85;1.75;;;15.60;13.70;;;;;;5124469;27;34108;-75
2022/06/18 02:52:04;;;;;;;1.63;1.40;;;15.60;13.50;;;;;;5124505;27;35800;-75
2022/06/18 02:54:30;;;;;;;1.45;1.35;;;15.60;13.50;;;;;;5116193;27;34131;-75
2022/06/18 02:57:00;;;;;;;1.90;1.80;;;15.50;13.40;;;;;;5070164;28;34127;-75
2022/06/18 02:59:27;;;;;;;1.60;1.50;;;15.50;13.70;;;;;;5104689;28;34269;-75
2022/06/18 03:01:53;;;;;;;1.90;1.80;;;15.50;13.60;;;;;;5069687;28;35662;-75
2022/06/18 03:04:19;;;;;;;1.65;1.55;;;15.40;13.70;;;;;;5086814;28;34231;-75
2022/06/18 03:06:45;;;;;;;3.38;1.60;;;15.40;13.80;;;;;;5105118;28;34183;-75
2022/06/18 03:09:11;;;;;;;1.70;1.42;;;15.40;13.90;;;;;;5070144;28;34058;-75
2022/06/18 03:14:18;;;;;;;1.70;1.60;;;15.40;14.00;;;;;;5104128;28;34343;-75
2022/06/18 03:16:44;;;;;;;2.55;1.60;;;15.40;14.00;;;;;;5101481;28;34158;-75
2022/06/18 03:19:29;;;;;;;3.63;1.50;;;15.30;14.00;;;;;;5086854;28;34048;-75
2022/06/18 03:22:01;;;;;;;5.47;1.63;;;15.30;15.40;;;;;;5070055;28;36289;-75
2022/06/18 03:24:27;;;;;;;2.10;1.80;;;15.30;14.40;;;;;;5065471;28;34171;-75
2022/06/18 03:26:53;;;;;;;3.95;1.88;;;15.30;14.30;;;;;;5080310;27;34091;-75
2022/06/18 03:29:20;;;;;;;1.90;1.75;;;15.30;14.30;;;;;;5086787;28;34405;-75
2022/06/18 03:31:45;;;;;;;2.00;1.65;;;15.20;14.30;;;;;;5069441;28;35586;-75
2022/06/18 03:34:14;;;;;;;1.58;1.45;;;15.20;14.20;;;;;;5095182;28;34144;-74
2022/06/18 03:36:40;;;;;;;1.70;1.60;;;15.20;14.50;;;;;;5078449;28;34033;-75
2022/06/18 03:39:09;;;;;;;3.22;1.55;;;15.20;14.30;;;;;;5086130;28;34510;-75
2022/06/18 03:41:35;;;;;;;2.33;1.70;;;15.20;14.60;;;;;;5085895;28;35837;-75
2022/06/18 03:44:01;;;;;;;3.13;1.70;;;15.20;14.50;;;;;;5068895;28;34191;-75
2022/06/18 03:46:27;;;;;;;2.05;1.85;;;15.20;14.50;;;;;;5085296;28;34022;-75
2022/06/18 03:49:02;;;;;;;2.58;1.83;;;15.20;14.50;;;;;;5085703;28;34170;-75
2022/06/18 03:51:32;;;;;;;1.85;1.73;;;15.20;15.00;;;;;;5085627;28;35875;-75
2022/06/18 03:53:59;;;;;;;2.53;1.95;;;15.20;15.30;;;;;;5090135;27;34348;-75
2022/06/18 03:56:29;;;;;;;4.90;2.08;;;15.20;14.70;;;;;;5122529;27;34099;-75
2022/06/18 03:58:55;;;;;;;2.33;1.83;;;15.30;15.10;;;;;;5123464;27;34098;-75
2022/06/18 04:01:26;;;;;;;4.82;1.92;;;15.30;14.90;;;;;;5123185;27;35923;-75
2022/06/18 04:03:52;;;;;;;2.47;1.85;;;15.30;15.10;;;;;;5125056;27;33975;-75
2022/06/18 04:06:18;;;;;;;2.55;1.70;;;15.30;15.00;;;;;;5123692;27;34171;-75
2022/06/18 04:08:45;;;;;;;1.95;1.65;;;15.40;14.90;;;;;;5144813;27;34077;-75
2022/06/18 04:11:12;;;;;;;2.90;1.80;;;15.40;15.00;;;;;;5109922;27;35515;-76
2022/06/18 04:13:39;;;;;;;3.47;1.90;;;15.40;15.00;;;;;;5126613;27;34303;-76
2022/06/18 04:16:06;;;;;;;1.70;1.60;;;15.50;15.10;;;;;;5127305;27;34127;-76
2022/06/18 04:18:35;;;;;;;1.90;1.70;;;15.50;15.20;;;;;;5128090;27;34077;-75
2022/06/18 04:21:02;;;;;;;1.70;1.60;;;15.50;15.10;;;;;;5120138;27;35822;-75
2022/06/18 04:23:29;;;;;;;2.58;1.73;;;15.50;15.30;;;;;;5106909;28;34293;-77
2022/06/18 04:25:55;;;;;;;2.03;1.83;;;15.60;15.20;;;;;;5106606;28;34269;-75
2022/06/18 04:28:21;;;;;;;2.25;1.75;;;15.60;15.20;;;;;;5106319;27;34261;-75
2022/06/18 04:30:47;;;;;;;2.20;1.98;;;15.70;15.70;;;;;;5125371;27;35758;-75
2022/06/18 04:33:14;;;;;;;2.55;1.80;;;15.80;15.20;;;;;;5127082;27;33996;-75
2022/06/18 04:35:40;;;;;;;2.75;1.77;;;15.90;15.10;;;;;;5126706;27;34051;-75
2022/06/18 04:38:06;;;;;;;2.88;2.03;;;15.90;15.10;;;;;;5126881;27;34356;-76
2022/06/18 04:40:34;;;;;;;1.73;1.63;;;16.00;15.00;;;;;;5126245;27;36858;-75
2022/06/18 04:43:04;;;;;;;2.00;1.83;;;16.10;15.20;;;;;;5126958;27;34219;-75
2022/06/18 04:45:31;;;;;;;7.63;2.10;;;16.20;15.30;;;;;;5127916;27;34347;-75
2022/06/18 04:47:58;;;;;;;1.75;1.65;;;16.30;15.00;;;;;;5126509;27;34522;-76
2022/06/18 04:50:27;;;;;;;4.18;1.90;;;16.50;14.90;;;;;;5126815;27;35738;-76
2022/06/18 04:52:53;;;;;;;2.55;2.35;;;16.60;15.10;;;;;;5126344;27;34090;-75
2022/06/18 04:55:19;;;;;;;2.60;2.10;;;16.70;14.70;;;;;;5143322;27;34299;-75
2022/06/18 04:57:45;;;;;;;2.30;2.10;;;16.80;14.60;;;;;;5126853;27;34488;-75
2022/06/18 05:00:13;;;;;;;2.10;1.90;;;16.90;14.60;;;;;;5143531;27;35882;-75
2022/06/18 05:02:39;;;;;;;2.38;1.88;;;17.10;14.70;;;;;;5115079;27;34594;-76
2022/06/18 05:05:10;;;;;;;4.13;2.20;;;17.20;14.40;;;;;;5126785;27;34215;-75
2022/06/18 05:07:37;;;;;;;2.35;2.15;;;17.40;14.40;;;;;;5115619;27;34191;-75
2022/06/18 05:10:03;;;;;;;2.40;2.00;;;17.50;14.10;;;;;;5122853;27;35560;-75
2022/06/18 05:12:29;;;;;;;4.90;2.17;;;17.70;14.10;;;;;;5101125;27;34130;-76
2022/06/18 05:14:56;;;;;;;3.08;2.20;;;17.80;13.90;;;;;;5126530;27;34084;-75
2022/06/18 05:17:27;;;;;;;2.17;1.98;;;18.00;13.90;;;;;;5126871;27;34251;-75
2022/06/18 05:19:53;;;;;;;3.33;2.15;;;18.20;14.00;;;;;;5126386;27;35740;-75
2022/06/18 05:22:19;;;;;;;3.72;2.00;;;18.30;13.20;;;;;;5109851;27;34377;-76
2022/06/18 05:24:45;;;;;;;2.25;2.05;;;18.60;12.80;;;;;;5126842;27;34267;-76
2022/06/18 05:27:24;;;;;;;2.08;1.88;;;19.00;12.60;;;;;;5126831;27;34576;-76
2022/06/18 05:29:50;;;;;;;4.03;2.05;;;19.50;13.20;;;;;;5127312;27;36030;-76
2022/06/18 05:32:16;;;;;;;3.08;1.90;;;19.80;11.40;;;;;;5122651;27;34174;-76
2022/06/18 05:34:42;;;;;;;3.50;2.13;;;20.30;10.80;;;;;;5106189;28;34202;-76
2022/06/18 05:37:16;;;;;;;2.38;1.95;;;20.60;10.10;;;;;;5124228;27;34278;-76
2022/06/18 05:39:42;;;;;;;2.10;1.90;;;21.00;9.90;;;;;;5106183;27;35927;-76
2022/06/18 05:42:08;;;;;;;2.10;1.77;;;21.30;9.10;;;;;;5094938;27;34281;-76
2022/06/18 05:44:35;;;;;;;2.88;2.08;;;21.70;8.80;;;;;;5127131;27;34348;-76
2022/06/18 05:47:09;;;;;;;4.47;2.00;;;22.00;8.30;;;;;;5110196;27;33796;-76
2022/06/18 05:49:35;;;;;;;3.38;1.88;;;22.30;7.70;;;;;;5126277;27;35615;-76
2022/06/18 05:52:01;;;;;;;2.13;1.98;;;22.50;7.20;;;;;;5125318;27;34276;-76
2022/06/18 05:54:27;;;;;;;2.05;1.85;;;22.70;6.80;;;;;;5106277;28;34162;-76
2022/06/18 05:56:53;;;;;;;2.55;2.05;;;22.90;6.70;;;;;;5107011;28;34080;-76
2022/06/18 05:59:19;;;;;;;2.00;1.90;;;23.30;6.60;;;;;;5106343;28;36076;-76
2022/06/18 06:01:45;;;;;;;3.55;1.90;;;23.70;6.40;;;;;;5108869;27;34332;-76
2022/06/18 06:04:11;;;;;;;2.58;2.15;;;24.00;5.90;;;;;;5109472;27;34220;-76
2022/06/18 06:06:37;;;;;;;2.97;1.70;;;24.40;5.60;;;;;;5125733;27;34518;-76
2022/06/18 06:09:04;;;;;;;1.92;1.60;;;24.70;5.30;;;;;;5125861;27;35746;-76
2022/06/18 06:11:30;;;;;;;3.88;1.80;;;25.00;4.70;;;;;;5126729;27;34346;-76
2022/06/18 06:13:57;;;;;;;3.15;2.08;;;25.20;4.20;;;;;;5126408;27;34145;-76
2022/06/18 06:16:24;;;;;;;3.08;1.92;;;25.40;3.80;;;;;;5126922;27;34238;-77
2022/06/18 06:18:50;;;;;;;1.90;1.70;;;25.70;3.40;;;;;;5126194;27;34098;-77
2022/06/18 06:21:16;;;;;;;2.28;1.85;;;25.80;3.00;;;;;;5123250;27;34402;-76
2022/06/18 06:23:42;;;;;;;3.78;2.00;;;26.10;3.70;;;;;;5125634;27;34478;-77
2022/06/18 06:26:24;;;;;;;1.85;1.73;;;26.40;2.90;;;;;;5127638;27;34274;-77
2022/06/18 06:28:50;;;;;;;3.72;1.95;;;26.70;1.40;;;;;;5107323;27;34424;-76
2022/06/18 06:31:16;;;;;;;1.85;1.70;;;27.00;2.00;;;;;;5129663;27;34388;-77
2022/06/18 06:33:42;;;;;;;1.83;1.65;;;27.10;1.60;;;;;;5119940;27;34348;-77
2022/06/18 06:36:10;;;;;;;3.90;1.70;;;27.20;1.40;;;;;;5126840;27;34099;-76
2022/06/18 06:38:37;;;;;;;3.28;2.38;;;27.50;1.00;;;;;;5125306;27;35535;-76
2022/06/18 06:41:10;;;;;;;4.55;2.15;;;27.60;1.00;;;;;;5126621;27;34135;-76
2022/06/18 06:43:36;;;;;;;3.60;1.80;;;27.70;1.00;;;;;;5109179;27;34010;-76
2022/06/18 06:46:02;;;;;;;1.90;1.67;;;27.70;1.00;;;;;;5125462;27;34054;-77
2022/06/18 06:51:16;;;;;;;3.17;1.80;;;27.80;1.00;;;;;;5126204;27;34075;-76
2022/06/18 06:53:43;;;;;;;2.20;2.00;;;27.80;1.00;;;;;;5123103;27;34505;-76
2022/06/18 06:58:53;;;;;;;2.10;1.85;;;28.10;1.00;;;;;;5104258;28;34824;-77
2022/06/18 07:01:18;;;;;;;2.05;1.80;;;28.20;1.00;;;;;;5082644;28;34352;-77
2022/06/18 07:03:44;;;;;;;2.15;1.95;;;28.30;1.00;;;;;;5067741;28;34191;-77
2022/06/18 07:06:10;;;;;;;2.10;1.90;;;28.30;1.00;;;;;;5089253;28;34156;-77
2022/06/18 07:08:36;;;;;;;2.40;1.65;;;28.50;1.00;;;;;;5066717;28;35884;-77
2022/06/18 07:11:02;;;;;;;1.75;1.60;;;28.60;1.00;;;;;;5050637;28;34186;-77
2022/06/18 07:13:29;;;;;;;2.58;1.90;;;28.70;1.00;;;;;;5073723;28;34413;-76
2022/06/18 07:15:56;;;;;;;3.30;1.50;;;29.00;1.00;;;;;;5077414;28;34110;-76
2022/06/18 07:18:24;;;;;;;2.30;1.95;;;29.20;1.00;;;;;;5103541;27;34413;-77
2022/06/18 07:20:51;;;;;;;5.80;1.85;;;29.50;1.00;;;;;;5087332;28;34373;-78
2022/06/18 07:23:18;;;;;;;8.82;2.17;;;29.60;1.00;;;;;;5086408;28;34179;-77
2022/06/18 07:25:44;;;;;;;2.15;1.92;;;29.70;1.00;;;;;;5087975;28;34472;-76
2022/06/18 07:28:10;;;;;;;2.17;1.80;;;29.80;1.00;;;;;;5089002;28;35750;-77
2022/06/18 07:30:37;;;;;;;2.00;1.60;;;30.00;1.00;;;;;;5078772;28;33861;-77
2022/06/18 07:33:03;;;;;;;5.05;2.03;;;30.20;1.00;;;;;;5070826;28;34384;-77
2022/06/18 07:35:34;;;;;;;2.75;1.92;;;30.40;1.00;;;;;;5088020;28;34055;-77
2022/06/18 07:38:00;;;;;;;2.03;1.77;;;30.40;1.00;;;;;;5087160;28;34207;-77
2022/06/18 07:40:31;;;;;;;3.42;1.80;;;30.40;1.00;;;;;;5087959;28;34412;-77
2022/06/18 07:42:58;;;;;;;1.95;1.75;;;30.60;1.00;;;;;;5086976;28;34070;-75
2022/06/18 07:45:25;;;;;;;1.63;1.52;;;30.60;1.00;;;;;;5077702;28;34067;-77
2022/06/18 07:47:51;;;;;;;3.97;1.60;;;30.70;1.00;;;;;;5082309;28;35739;-77
2022/06/18 07:50:19;;;;;;;4.50;1.83;;;30.80;1.00;;;;;;5106347;28;34319;-77
2022/06/18 07:52:45;;;;;;;3.08;1.70;;;31.10;1.00;;;;;;5086826;28;34210;-77
2022/06/18 07:55:15;;;;;;;2.45;1.75;;;31.20;1.00;;;;;;5099526;27;34357;-77
2022/06/18 07:57:43;;;;;;;2.88;1.80;;;31.30;1.00;;;;;;5080387;28;35618;-77
2022/06/18 08:00:11;;;;;;;4.60;1.70;;;31.40;1.00;;;;;;5088508;28;34189;-77
2022/06/18 08:02:39;;;;;;;2.67;1.65;;;31.50;1.00;;;;;;5108167;28;34207;-77
2022/06/18 08:05:06;;;;;;;4.97;1.80;;;31.50;1.00;;;;;;5072147;28;34459;-76
2022/06/18 08:07:33;;;;;;;2.35;1.73;;;31.60;1.00;;;;;;5071084;28;35968;-78
2022/06/18 08:09:58;;;;;;;3.58;1.65;;;31.60;1.00;;;;;;5070069;28;34397;-77
2022/06/18 08:12:24;;;;;;;2.28;1.73;;;31.60;1.00;;;;;;5055443;28;34239;-77
2022/06/18 08:14:51;;;;;;;1.92;1.83;;;31.80;1.00;;;;;;5099194;28;34191;-77
2022/06/18 08:17:17;;;;;;;4.63;1.77;;;31.80;1.00;;;;;;5086359;28;35750;-78
2022/06/18 08:19:42;;;;;;;1.90;1.80;;;31.80;1.00;;;;;;5086663;28;34398;-77
2022/06/18 08:22:10;;;;;;;1.83;1.70;;;31.80;1.00;;;;;;5083088;28;35551;-77
2022/06/18 08:24:36;;;;;;;2.65;1.73;;;32.00;1.00;;;;;;5081870;28;34691;-77
2022/06/18 08:27:02;;;;;;;2.05;1.58;;;32.00;1.00;;;;;;5077803;28;35488;-77
2022/06/18 08:29:28;;;;;;;1.90;1.63;;;32.10;1.00;;;;;;5103523;28;34437;-77
2022/06/18 08:31:55;;;;;;;3.35;1.70;;;32.00;1.00;;;;;;5082518;28;34328;-77
2022/06/18 08:34:21;;;;;;;7.15;1.80;;;32.10;1.00;;;;;;5079247;28;34694;-77
2022/06/18 08:36:47;;;;;;;2.95;1.40;;;32.30;1.00;;;;;;5086499;28;35890;-77
2022/06/18 08:39:13;;;;;;;1.50;1.40;;;32.40;1.00;;;;;;5101458;28;34168;-77
2022/06/18 08:42:01;;;;;;;2.20;1.52;;;32.50;1.00;;;;;;5072345;28;34180;-77
2022/06/18 08:45:07;;;;;;;4.50;1.60;;;32.80;1.00;;;;;;5077883;28;34327;-77
2022/06/18 08:48:05;;;;;;;2.72;1.73;;;33.10;1.00;;;;;;5067363;28;35615;-78
2022/06/18 08:50:42;;;;;;;1.92;1.73;;;33.30;1.00;;;;;;5071416;27;34250;-77
2022/06/18 08:53:28;;;;;;;2.15;1.50;;;33.30;1.00;;;;;;5064852;28;34008;-77
2022/06/18 08:56:08;;;;;;;2.33;1.75;;;33.50;1.00;;;;;;5127373;27;34461;-78
2022/06/18 08:59:03;;;;;;;2.75;1.90;;;33.60;1.00;;;;;;5117682;27;36233;-76
2022/06/18 09:01:39;;;;;;;1.67;1.55;;;33.70;1.00;;;;;;5113025;27;34229;-77
2022/06/18 09:04:28;;;;;;;2.15;1.73;;;33.60;1.00;;;;;;5127548;27;34193;-77
2022/06/18 09:07:30;;;;;;;1.80;1.63;;;33.70;1.00;;;;;;5127770;27;34474;-78
2022/06/18 09:10:13;;;;;;;1.63;1.52;;;33.70;1.00;;;;;;5117272;27;35909;-76
2022/06/18 09:12:46;;;;;;;1.70;1.60;;;33.80;1.00;;;;;;5129329;27;34966;-78
2022/06/18 09:15:18;;;;;;;2.47;1.77;;;33.90;1.00;;;;;;5129936;27;33771;-78
2022/06/18 09:17:51;;;;;;;4.28;1.60;;;33.90;1.00;;;;;;5127793;27;34195;-78
2022/06/18 09:20:35;;;;;;;1.83;1.73;;;34.20;1.00;;;;;;5109660;27;34235;-77
2022/06/18 09:23:09;;;;;;;2.83;1.52;;;34.30;1.00;;;;;;5118677;27;34146;-77
2022/06/18 09:25:41;;;;;;;3.90;1.58;;;34.40;1.00;;;;;;5132649;27;34138;-77
2022/06/18 09:28:11;;;;;;;5.22;1.70;;;34.50;1.00;;;;;;5118622;27;34443;-77
2022/06/18 09:31:03;;;;;;;2.33;1.58;;;34.50;1.00;;;;;;5106845;27;35825;-77
2022/06/18 09:33:55;;;;;;;7.93;1.75;;;34.60;1.00;;;;;;5116783;27;34084;-77
2022/06/18 09:36:28;;;;;;;3.30;1.75;;;34.60;1.00;;;;;;5118778;27;34059;-76
2022/06/18 09:39:07;;;;;;;2.38;1.60;;;34.60;1.00;;;;;;5112985;27;34042;-76
2022/06/18 09:41:39;;;;;;;2.60;1.58;;;34.70;1.00;;;;;;5128124;27;34694;-75
2022/06/18 09:44:24;;;;;;;1.60;1.50;;;34.80;1.00;;;;;;5101451;28;34180;-77
2022/06/18 09:46:59;;;;;;;2.83;1.90;;;34.90;1.00;;;;;;5111343;27;34315;-77
2022/06/18 09:49:24;;;;;;;2.55;1.52;;;34.90;1.00;;;;;;5127575;27;34385;-77
2022/06/18 09:51:56;;;;;;;2.05;1.50;;;34.90;1.00;;;;;;5139148;27;36038;-77
2022/06/18 09:54:28;;;;;;;1.70;1.60;;;34.80;1.00;;;;;;5116649;27;34522;-77
2022/06/18 09:56:58;;;;;;;2.60;1.55;;;35.00;1.00;;;;;;5124693;27;34320;-77
2022/06/18 09:59:34;;;;;;;1.55;1.40;;;35.30;1.00;;;;;;5126623;27;34016;-80
2022/06/18 10:02:02;;;;;;;2.05;1.60;;;35.50;1.00;;;;;;5112818;27;35717;-79
2022/06/18 10:07:20;;;;;;;3.10;1.67;;;36.10;1.00;;;;;;5125804;27;34198;-79
2022/06/18 10:09:51;;;;;;;5.00;1.70;;;36.40;1.00;;;;;;5100257;28;34032;-78
2022/06/18 10:12:24;;;;;;;1.65;1.50;;;36.50;1.00;;;;;;5125709;27;35517;-77
2022/06/18 10:15:00;;;;;;;3.15;1.67;;;36.60;1.00;;;;;;5107820;27;34395;-77
2022/06/18 10:17:49;;;;;;;1.92;1.55;;;36.50;1.00;;;;;;5116732;27;33662;-77
2022/06/18 10:20:41;;;;;;;5.63;1.83;;;36.40;1.00;;;;;;5125245;27;34287;-77
2022/06/18 10:23:37;;;;;;;4.53;1.55;;;36.30;1.00;;;;;;5123009;27;35809;-77
2022/06/18 10:26:28;;;;;;;2.15;1.67;;;36.30;1.00;;;;;;5125308;27;34244;-76
2022/06/18 10:29:10;;;;;;;5.22;1.70;;;36.20;1.00;;;;;;5140641;27;34162;-76
2022/06/18 10:31:51;;;;;;;3.67;1.58;;;36.20;1.00;;;;;;5092785;28;34226;-77
2022/06/18 10:34:52;;;;;;;3.53;1.50;;;36.30;1.00;;;;;;5141824;27;35564;-77
2022/06/18 10:37:43;;;;;;;1.80;1.70;;;36.30;1.00;;;;;;5103145;27;34217;-76
2022/06/18 10:40:34;;;;;;;6.65;1.77;;;36.30;1.00;;;;;;5125738;27;34427;-76
2022/06/18 10:43:24;;;;;;;6.53;1.70;;;36.30;1.00;;;;;;5124435;27;34224;-77
2022/06/18 10:45:57;;;;;;;2.03;1.73;;;36.50;1.00;;;;;;5106512;27;35823;-77
2022/06/18 10:48:26;;;;;;;2.95;1.60;;;36.90;1.00;;;;;;5126952;27;34150;-77
2022/06/18 10:50:55;;;;;;;1.55;1.45;;;36.90;1.00;;;;;;5126276;27;34323;-76
2022/06/18 10:53:25;;;;;;;3.03;1.45;;;36.90;1.00;;;;;;5126241;27;34487;-77
2022/06/18 10:56:13;;;;;;;2.00;1.90;;;37.00;1.00;;;;;;5122559;27;35758;-76
2022/06/18 10:58:49;;;;;;;2.05;1.80;;;37.00;1.00;;;;;;5115173;27;34423;-78
2022/06/18 11:01:24;;;;;;;1.77;1.67;;;37.00;1.00;;;;;;5123803;27;34312;-78
2022/06/18 11:03:55;;;;;;;3.13;1.55;;;37.00;1.00;;;;;;5119990;27;34124;-78
2022/06/18 11:06:22;;;;;;;3.78;1.50;;;37.20;1.00;;;;;;5122031;27;36764;-77
2022/06/18 11:08:52;;;;;;;2.17;1.80;;;37.40;1.00;;;;;;5104877;27;34271;-77
2022/06/18 11:11:23;;;;;;;5.90;1.80;;;37.50;1.00;;;;;;5114050;27;34158;-76
2022/06/18 11:13:50;;;;;;;3.47;1.70;;;37.60;1.00;;;;;;5136861;27;34244;-77
2022/06/18 11:16:24;;;;;;;5.72;1.70;;;37.60;1.00;;;;;;5106625;27;35503;-76
2022/06/18 11:18:58;;;;;;;1.90;1.70;;;37.70;1.00;;;;;;5113261;27;34179;-77
2022/06/18 11:21:40;;;;;;;4.00;1.23;;;37.70;1.00;;;;;;5121218;27;34412;-77
2022/06/18 11:24:28;;;;;;;2.08;1.33;;;37.80;1.00;;;;;;5122049;27;34554;-76
2022/06/18 11:27:00;;;;;;;2.53;2.13;;;37.90;1.00;;;;;;5121367;27;36575;-78
2022/06/18 11:29:37;;;;;;;4.07;1.80;;;38.00;1.00;;;;;;5121582;27;34171;-78
2022/06/18 11:32:12;;;;;;;2.00;1.45;;;38.10;1.00;;;;;;5125935;27;34368;-77
2022/06/18 11:34:42;;;;;;;4.75;1.48;;;38.10;1.00;;;;;;5125154;27;34358;-77
2022/06/18 11:37:18;;;;;;;4.20;2.00;;;38.20;1.00;;;;;;5119910;27;35250;-77
2022/06/18 11:40:06;;;;;;;4.28;2.05;;;38.10;1.00;;;;;;5098949;27;34224;-77
2022/06/18 11:42:46;;;;;;;9.52;1.80;;;38.00;1.00;;;;;;5119500;27;34225;-74
2022/06/18 11:45:34;;;;;;;4.20;1.60;;;38.00;1.00;;;;;;5102261;27;34143;-76
2022/06/18 11:48:32;;;;;;;4.95;1.65;;;38.00;1.00;;;;;;5117943;27;36004;-75
2022/06/18 11:51:23;;;;;;;5.20;1.60;;;38.00;1.00;;;;;;5108180;27;34291;-77
2022/06/18 11:54:10;;;;;;;3.37;1.57;;;38.00;1.00;;;;;;4927076;27;5103329;-74
2022/06/18 11:56:57;;;;;;;7.55;1.65;;;38.20;1.00;;;;;;5122101;27;34329;-76
2022/06/18 11:59:38;;;;;;;7.13;2.22;;;38.30;1.00;;;;;;5105776;27;35638;-75
2022/06/18 12:02:24;;;;;;;6.90;1.75;;;38.50;1.00;;;;;;5101142;28;34111;-76
2022/06/18 12:05:02;;;;;;;4.22;1.63;;;38.60;1.00;;;;;;5112030;27;34002;-75
2022/06/18 12:07:46;;;;;;;7.15;1.90;;;38.80;1.00;;;;;;5104948;27;34437;-76
2022/06/18 12:10:15;;;;;;;4.05;1.58;;;38.60;1.00;;;;;;5115976;27;34279;-78
2022/06/18 12:13:04;;;;;;;6.05;1.52;;;38.60;1.00;;;;;;5105581;28;34269;-75
2022/06/18 12:15:57;;;;;;;4.45;1.60;;;38.70;1.00;;;;;;5121558;27;34141;-75
2022/06/18 12:18:35;;;;;;;5.13;1.70;;;38.70;1.00;;;;;;5113936;27;34139;-76
2022/06/18 12:21:20;;;;;;;5.63;1.73;;;38.70;1.00;;;;;;5101527;27;36417;-75
2022/06/18 12:23:57;;;;;;;2.38;1.55;;;38.70;1.00;;;;;;5124806;27;33972;-77
2022/06/18 12:26:36;;;;;;;3.25;1.80;;;38.60;1.00;;;;;;5121222;27;34266;-74
2022/06/18 12:29:32;;;;;;;5.00;1.52;;;38.50;1.00;;;;;;5119899;27;34113;-76
2022/06/18 12:32:08;;;;;;;3.63;1.52;;;38.50;1.00;;;;;;5122444;27;34647;-75
2022/06/18 12:34:55;;;;;;;7.60;2.05;;;38.50;1.00;;;;;;5121746;27;34133;-76
2022/06/18 12:37:48;;;;;;;5.30;1.70;;;38.50;1.00;;;;;;5126368;27;33775;-75
2022/06/18 12:40:33;;;;;;;4.88;1.73;;;38.50;1.00;;;;;;5128419;27;34075;-75
2022/06/18 12:43:09;;;;;;;5.45;1.40;;;38.60;1.00;;;;;;5134137;27;35655;-76
2022/06/18 12:45:57;;;;;;;4.90;1.75;;;38.50;1.00;;;;;;5119588;27;34503;-76
2022/06/18 12:48:53;;;;;;;4.97;1.55;;;38.50;1.00;;;;;;5115750;27;34329;-76
2022/06/18 12:51:51;;;;;;;4.07;1.55;;;38.30;1.00;;;;;;5118933;27;34585;-77
2022/06/18 12:54:32;;;;;;;5.90;1.80;;;38.20;1.00;;;;;;5125910;27;35829;-75
2022/06/18 12:57:24;;;;;;;7.28;1.77;;;38.30;1.00;;;;;;5090799;28;34213;-77
2022/06/18 13:00:11;;;;;;;7.20;2.13;;;38.40;1.00;;;;;;5115367;27;34322;-78
2022/06/18 13:03:08;;;;;;;7.13;1.77;;;38.40;1.00;;;;;;5128695;27;34580;-77
2022/06/18 13:05:43;;;;;;;4.40;1.80;;;38.30;1.00;;;;;;5116606;27;35712;-76
2022/06/18 13:08:25;;;;;;;5.40;1.40;;;38.20;1.00;;;;;;5123401;27;34284;-76
2022/06/18 13:11:02;;;;;;;5.22;1.70;;;38.10;1.00;;;;;;5124507;27;34108;-76
2022/06/18 13:13:58;;;;;;;5.30;2.08;;;38.00;1.00;;;;;;5078039;28;34184;-76
2022/06/18 13:16:32;;;;;;;10.38;1.80;;;37.90;1.00;;;;;;5111946;27;36530;-77
2022/06/18 13:19:13;;;;;;;5.53;1.88;;;37.90;1.00;;;;;;5110461;27;34367;-76
2022/06/18 13:21:40;;;;;;;7.90;1.85;;;38.00;1.00;;;;;;5126248;27;34144;-76
2022/06/18 13:29:57;;;;;;;6.38;1.88;;;38.30;1.00;;;;;;5129549;27;34349;-76
2022/06/18 13:32:37;;;;;;;5.93;1.92;;;38.30;1.00;;;;;;5127904;27;34218;-76
2022/06/18 13:35:33;;;;;;;5.22;2.15;;;38.40;1.00;;;;;;5128615;27;34153;-76
2022/06/18 13:38:14;;;;;;;4.15;1.90;;;38.50;1.00;;;;;;5128343;27;35818;-76
2022/06/18 13:40:48;;;;;;;10.45;2.00;;;38.70;1.00;;;;;;5126634;27;34107;-76